AKDT,Max TemperatureF,Mean TemperatureF,Min TemperatureF,Max Dew PointF,MeanDew PointF,Min DewpointF,Max Humidity, Mean Humidity, Min Humidity, Max Sea Level PressureIn, Mean Sea Level PressureIn, Min Sea Level PressureIn, Max VisibilityMiles, Mean VisibilityMiles, Min VisibilityMiles, Max Wind SpeedMPH, Mean Wind SpeedMPH, Max Gust SpeedMPH,PrecipitationIn, CloudCover, Events, WindDirDegrees
2013-3-1,16,4,-8,9,-2,-13,88,82,74,30.08,29.83,29.59,10,10,5,4,1,,0.00,5,Snow,144
2013-3-2,16,2,-11,7,-7,-17,88,79,65,30.29,30.19,30.10,10,10,10,4,0,,0.00,4,Fog,243
2013-3-3,21,2,-18,10,-4,-23,91,75,59,30.56,30.47,30.30,10,10,10,7,2,,0.00,2,Fog,117
2013-3-4,23,10,-5,10,2,-10,88,75,55,30.60,30.52,30.44,10,10,10,8,4,,0.00,1,,116
2013-3-5,18,4,-9,7,-4,-16,88,77,62,30.43,30.27,30.12,10,10,10,0,0,,0.00,4,,-1
2013-3-6,19,2,-15,8,-6,-19,91,76,57,30.11,30.06,30.00,10,10,10,4,0,,0.00,2,Fog,-1
2013-3-7,25,6,-14,11,0,-19,87,70,53,30.05,29.90,29.76,10,10,10,9,2,,0.00,5,,137
2013-3-8,30,15,0,14,7,-3,91,73,50,29.88,29.80,29.75,10,10,10,5,0,,0.00,4,,235
2013-3-9,35,14,-8,16,3,-12,92,75,44,30.08,30.00,29.88,10,10,10,5,1,,0.00,2,,96
2013-3-10,35,20,5,15,10,2,87,65,40,30.25,30.16,30.07,10,10,10,7,4,,0.00,4,,104
2013-3-11,25,17,9,16,10,0,81,68,54,30.53,30.39,30.25,10,8,1,13,8,21,0.00,5,Snow,324
2013-3-12,14,2,-15,-2,-12,-20,78,55,34,30.59,30.51,30.42,10,10,10,10,5,,0.00,1,,287
2013-3-13,10,-8,-27,-8,-19,-32,78,67,38,30.40,30.31,30.23,10,10,10,5,1,,0.00,4,,92
2013-3-14,10,-8,-27,-10,-19,-33,82,63,39,30.42,30.37,30.29,10,10,10,9,2,,0.00,2,,90
2013-3-15,10,-11,-31,-8,-19,-35,82,62,38,30.38,30.28,30.19,10,10,10,9,1,,0.00,2,,98
2013-3-16,12,-6,-24,-5,-16,-30,79,64,42,30.29,30.26,30.22,10,10,10,6,0,,0.00,1,,217
2013-3-17,15,-6,-25,-5,-16,-32,79,66,41,30.38,30.30,30.19,10,10,10,4,0,,0.00,0,,225
2013-3-18,17,-4,-24,4,-10,-30,84,69,49,30.19,30.09,30.03,10,10,8,13,2,18,0.00,3,Snow,315
2013-3-19,12,0,-16,1,-9,-21,88,68,39,30.11,30.07,30.03,10,10,7,10,3,,0.00,4,Snow,313
2013-3-20,10,-8,-27,-8,-19,-35,84,66,40,30.11,30.07,29.85,10,10,9,6,0,,0.00,3,Fog-Snow,267
2013-3-21,12,-8,-29,-8,-19,-35,77,59,40,30.34,30.28,30.13,10,10,10,7,2,,0.00,2,,112
2013-3-22,18,9,1,-1,-7,-12,56,49,39,30.25,30.13,29.96,10,10,10,12,6,,0.00,7,,126
2013-3-23,28,11,-5,8,0,-10,85,72,45,30.05,29.90,29.67,10,6,0,20,7,32,0.00,7,Snow,309
2013-3-24,17,5,-6,8,0,-11,88,79,68,30.07,29.92,29.73,10,10,10,0,0,,0.00,7,,-1
2013-3-25,15,3,-8,5,-1,-13,83,74,66,29.70,29.54,29.33,10,9,2,18,5,26,0.00,6,Fog-Snow,321
2013-3-26,9,0,-8,-2,-8,-14,83,65,44,30.19,29.92,29.53,10,8,0,17,11,26,0.00,5,Snow,326
2013-3-27,16,-4,-22,-3,-12,-28,82,62,43,30.31,30.27,30.20,10,10,10,7,3,,0.00,3,,82
2013-3-28,26,12,-2,3,-2,-9,75,55,35,30.25,30.16,30.08,10,10,10,9,7,,0.00,5,,121
2013-3-29,30,20,10,21,9,0,81,59,43,30.09,30.06,30.02,10,10,7,12,7,,0.00,6,Snow,126
2013-3-30,41,29,19,24,20,16,92,72,51,30.22,30.14,30.04,10,10,10,9,2,,0.00,6,,125
2013-3-31,41,30,19,26,19,15,89,68,40,30.28,30.21,30.09,10,10,9,6,2,,0.00,5,Snow,90